Time;durP1;ratioP1;P1;durP2;ratioP2;P2;SDS_P1;SDS_P2;PMS_P1;PMS_P2;Temp;Humidity;BMP_temperature;BMP_pressure;BME280_temperature;BME280_humidity;BME280_pressure;Samples;Min_cycle;Max_cycle;Signal;HPM_P1;HPM_P2
2021/06/04 00:00:44;;;;;;;;;;;23.40;40.60;;;;;;4971430;28;77268;-68
2021/06/04 00:03:16;;;;;;;;;;;23.30;42.00;;;;;;4971153;28;75796;-68
2021/06/04 00:05:44;;;;;;;;;;;23.30;41.90;;;;;;4972720;28;75331;-71
2021/06/04 00:08:10;;;;;;;;;;;23.20;42.70;;;;;;4972832;28;75173;-67
2021/06/04 00:10:40;;;;;;;;;;;23.20;44.00;;;;;;4972486;28;75823;-71
2021/06/04 00:13:15;;;;;;;;;;;23.20;43.40;;;;;;4972831;28;75937;-68
2021/06/04 00:15:40;;;;;;;;;;;23.10;44.10;;;;;;4972767;28;75782;-72
2021/06/04 00:18:06;;;;;;;;;;;23.00;44.80;;;;;;4972167;28;75747;-70
2021/06/04 00:20:32;;;;;;;;;;;23.00;44.30;;;;;;4971189;28;75374;-71
2021/06/04 00:22:57;;;;;;;;;;;23.00;45.40;;;;;;4972651;28;75540;-71
2021/06/04 00:25:23;;;;;;;;;;;22.90;46.80;;;;;;4972270;28;76819;-72
2021/06/04 00:27:49;;;;;;;;;;;22.80;46.50;;;;;;4971106;28;75570;-68
2021/06/04 00:30:16;;;;;;;;;;;22.80;46.80;;;;;;4972665;28;75390;-68
2021/06/04 00:32:41;;;;;;;;;;;22.70;49.00;;;;;;4970922;28;79348;-68
2021/06/04 00:35:08;;;;;;;;;;;22.60;48.30;;;;;;4972521;28;75296;-67
2021/06/04 00:37:33;;;;;;;;;;;22.60;48.70;;;;;;4972189;28;74645;-67
2021/06/04 00:39:59;;;;;;;;;;;22.50;47.50;;;;;;4973964;28;76276;-69
2021/06/04 00:42:30;;;;;;;;;;;22.50;47.20;;;;;;4974232;28;76997;-67
2021/06/04 00:44:58;;;;;;;;;;;22.50;46.50;;;;;;4975661;28;75236;-68
2021/06/04 00:47:24;;;;;;;;;;;22.50;45.40;;;;;;4974264;28;77743;-67
2021/06/04 00:49:49;;;;;;;;;;;22.50;44.10;;;;;;4975707;28;77216;-70
2021/06/04 00:52:24;;;;;;;;;;;22.50;43.40;;;;;;4975343;28;74471;-71
2021/06/04 00:54:51;;;;;;;;;;;22.40;42.80;;;;;;4974830;28;77429;-71
2021/06/04 00:57:17;;;;;;;;;;;22.40;42.50;;;;;;4973815;28;76872;-71
2021/06/04 00:59:43;;;;;;;;;;;22.40;42.20;;;;;;4974207;28;75797;-71
2021/06/04 01:02:11;;;;;;;;;;;22.30;41.80;;;;;;4973599;28;76709;-71
2021/06/04 01:04:37;;;;;;;;;;;22.30;41.80;;;;;;4974263;28;76157;-66
2021/06/04 01:07:08;;;;;;;;;;;22.30;41.90;;;;;;4975697;28;75443;-67
2021/06/04 01:09:37;;;;;;;;;;;22.30;41.80;;;;;;4974793;28;75340;-67
2021/06/04 01:12:11;;;;;;;;;;;22.30;41.70;;;;;;4974235;28;76059;-73
2021/06/04 01:14:46;;;;;;;;;;;22.30;41.10;;;;;;4975319;28;75145;-72
2021/06/04 01:17:21;;;;;;;;;;;22.20;41.30;;;;;;4973962;28;77036;-72
2021/06/04 01:19:47;;;;;;;;;;;22.10;41.30;;;;;;4975228;28;75099;-73
2021/06/04 01:22:23;;;;;;;;;;;22.10;41.30;;;;;;4975423;28;75668;-72
2021/06/04 01:25:08;;;;;;;;;;;22.00;41.50;;;;;;4975351;28;75324;-68
2021/06/04 01:27:36;;;;;;;;;;;22.00;41.60;;;;;;4974794;28;75248;-70
2021/06/04 01:30:05;;;;;;;;;;;22.00;41.60;;;;;;4973705;28;74634;-73
2021/06/04 01:32:33;;;;;;;;;;;21.90;41.60;;;;;;4973617;28;76147;-71
2021/06/04 01:35:05;;;;;;;;;;;21.90;43.10;;;;;;4975407;28;74984;-72
2021/06/04 01:37:31;;;;;;;;;;;21.90;42.90;;;;;;4974971;28;74558;-73
2021/06/04 01:39:59;;;;;;;;;;;21.80;42.60;;;;;;4973606;28;78027;-73
2021/06/04 01:42:36;;;;;;;;;;;21.70;42.50;;;;;;4973454;28;76575;-69
2021/06/04 01:45:03;;;;;;;;;;;21.70;42.60;;;;;;4975195;28;75261;-72
2021/06/04 01:47:31;;;;;;;;;;;21.60;43.00;;;;;;4973598;28;77238;-72
2021/06/04 01:49:58;;;;;;;;;;;21.50;43.20;;;;;;4971877;28;78032;-71
2021/06/04 01:52:27;;;;;;;;;;;21.50;43.00;;;;;;4973634;28;75494;-70
2021/06/04 01:54:52;;;;;;;;;;;21.50;43.00;;;;;;4973130;28;75740;-70
2021/06/04 01:57:21;;;;;;;;;;;21.40;43.10;;;;;;4973322;28;77115;-70
2021/06/04 01:59:49;;;;;;;;;;;21.40;43.70;;;;;;4972944;28;74958;-70
2021/06/04 02:02:15;;;;;;;;;;;21.40;43.70;;;;;;4973486;28;76977;-70
2021/06/04 02:04:42;;;;;;;;;;;21.30;43.40;;;;;;4975376;28;74544;-70
2021/06/04 02:07:09;;;;;;;;;;;21.30;43.70;;;;;;4974549;28;75044;-70
2021/06/04 02:09:35;;;;;;;;;;;21.20;44.00;;;;;;4974440;28;75383;-71
2021/06/04 02:12:01;;;;;;;;;;;21.10;43.90;;;;;;4973015;28;77379;-71
2021/06/04 02:14:32;;;;;;;;;;;21.20;44.10;;;;;;4974978;28;74377;-71
2021/06/04 02:17:09;;;;;;;;;;;21.20;44.20;;;;;;4972703;28;76438;-68
2021/06/04 02:19:55;;;;;;;;;;;21.20;43.80;;;;;;4973114;28;76575;-69
2021/06/04 02:22:39;;;;;;;;;;;21.30;43.70;;;;;;4972271;28;77023;-69
2021/06/04 02:25:11;;;;;;;;;;;21.30;43.50;;;;;;4972938;28;77576;-67
2021/06/04 02:27:38;;;;;;;;;;;21.30;43.60;;;;;;4974376;28;75237;-67
2021/06/04 02:30:12;;;;;;;;;;;21.30;43.70;;;;;;4972639;28;77605;-68
2021/06/04 02:32:48;;;;;;;;;;;21.20;43.70;;;;;;4974300;28;74463;-67
2021/06/04 02:35:16;;;;;;;;;;;21.20;43.60;;;;;;4972571;28;75461;-67
2021/06/04 02:37:45;;;;;;;;;;;21.20;43.60;;;;;;4974499;28;75214;-68
2021/06/04 02:40:16;;;;;;;;;;;21.10;43.80;;;;;;4973864;28;75301;-68
2021/06/04 02:42:47;;;;;;;;;;;21.10;43.80;;;;;;4974231;28;75602;-67
2021/06/04 02:45:23;;;;;;;;;;;21.10;43.80;;;;;;4974566;28;74441;-68
2021/06/04 02:47:51;;;;;;;;;;;21.10;43.80;;;;;;4972702;28;77588;-71
2021/06/04 02:50:16;;;;;;;;;;;21.10;43.80;;;;;;4972585;28;78033;-72
2021/06/04 02:52:44;;;;;;;;;;;21.10;43.70;;;;;;4974428;28;74436;-71
2021/06/04 02:55:15;;;;;;;;;;;21.00;43.90;;;;;;4974092;28;75102;-71
2021/06/04 02:57:41;;;;;;;;;;;21.00;43.90;;;;;;4973620;28;74613;-68
2021/06/04 03:00:13;;;;;;;;;;;20.90;44.00;;;;;;4972259;28;74731;-69
2021/06/04 03:02:39;;;;;;;;;;;20.90;44.00;;;;;;4971812;28;75395;-71
2021/06/04 03:05:09;;;;;;;;;;;21.00;44.00;;;;;;4972207;28;77840;-68
2021/06/04 03:07:37;;;;;;;;;;;21.00;44.10;;;;;;4973698;28;75218;-68
2021/06/04 03:10:12;;;;;;;;;;;20.90;44.10;;;;;;4973642;28;75706;-69
2021/06/04 03:12:40;;;;;;;;;;;20.90;44.10;;;;;;4973243;28;75300;-67
2021/06/04 03:15:21;;;;;;;;;;;20.90;44.30;;;;;;4972333;28;77677;-67
2021/06/04 03:17:46;;;;;;;;;;;20.90;44.30;;;;;;4971907;28;77202;-67
2021/06/04 03:20:14;;;;;;;;;;;20.90;46.30;;;;;;4973748;28;74477;-67
2021/06/04 03:22:41;;;;;;;;;;;20.80;45.70;;;;;;4973579;28;75724;-71
2021/06/04 03:25:10;;;;;;;;;;;20.80;45.60;;;;;;4973992;28;74502;-68
2021/06/04 03:27:36;;;;;;;;;;;20.70;45.80;;;;;;4972984;28;76450;-73
2021/06/04 03:30:03;;;;;;;;;;;20.70;46.50;;;;;;4973364;28;75225;-73
2021/06/04 03:32:29;;;;;;;;;;;20.70;46.40;;;;;;4973011;28;75249;-66
2021/06/04 03:34:54;;;;;;;;;;;20.60;46.90;;;;;;4973410;28;75710;-71
2021/06/04 03:37:21;;;;;;;;;;;20.50;47.90;;;;;;4973110;28;75544;-74
2021/06/04 03:39:46;;;;;;;;;;;20.50;48.40;;;;;;4973564;28;74468;-74
2021/06/04 03:42:26;;;;;;;;;;;20.40;49.30;;;;;;4972034;28;76071;-72
2021/06/04 03:44:52;;;;;;;;;;;20.40;49.40;;;;;;4972922;28;75815;-71
2021/06/04 03:47:18;;;;;;;;;;;20.40;48.80;;;;;;4972039;28;75963;-68
2021/06/04 03:49:44;;;;;;;;;;;20.40;48.70;;;;;;4971532;28;77847;-69
2021/06/04 03:52:11;;;;;;;;;;;20.30;48.00;;;;;;4971934;28;77405;-69
2021/06/04 03:54:39;;;;;;;;;;;20.40;47.50;;;;;;4971438;28;75290;-68
2021/06/04 03:57:07;;;;;;;;;;;20.30;47.10;;;;;;4972833;28;74667;-70
2021/06/04 03:59:33;;;;;;;;;;;20.30;47.90;;;;;;4973135;28;74997;-67
2021/06/04 04:02:01;;;;;;;;;;;20.40;47.80;;;;;;4972845;28;75432;-66
2021/06/04 04:04:26;;;;;;;;;;;20.30;46.90;;;;;;4972747;28;76899;-68
2021/06/04 04:06:52;;;;;;;;;;;20.30;46.70;;;;;;4972894;28;75320;-66
2021/06/04 04:09:18;;;;;;;;;;;20.30;46.70;;;;;;4971761;28;77188;-66
2021/06/04 04:11:44;;;;;;;;;;;20.20;46.40;;;;;;4973409;28;75726;-66
2021/06/04 04:14:10;;;;;;;;;;;20.20;46.40;;;;;;4975220;28;75476;-65
2021/06/04 04:16:36;;;;;;;;;;;20.20;47.10;;;;;;4975293;28;77069;-67
2021/06/04 04:19:01;;;;;;;;;;;20.20;47.80;;;;;;4974535;28;75376;-68
2021/06/04 04:21:27;;;;;;;;;;;20.20;47.20;;;;;;4976505;28;74939;-72
2021/06/04 04:23:55;;;;;;;;;;;20.20;47.00;;;;;;4976258;28;75167;-72
2021/06/04 04:26:25;;;;;;;;;;;20.20;47.90;;;;;;4976474;28;74463;-72
2021/06/04 04:28:51;;;;;;;;;;;20.20;48.90;;;;;;4976338;28;75267;-74
2021/06/04 04:31:18;;;;;;;;;;;20.20;48.60;;;;;;4976072;28;75173;-74
2021/06/04 04:33:44;;;;;;;;;;;20.10;49.20;;;;;;4974498;28;76669;-71
2021/06/04 04:36:10;;;;;;;;;;;20.10;49.10;;;;;;4976058;28;74464;-74
2021/06/04 04:38:36;;;;;;;;;;;20.00;49.30;;;;;;4976107;28;75167;-74
2021/06/04 04:41:03;;;;;;;;;;;20.00;49.50;;;;;;4976272;28;74583;-72
2021/06/04 04:43:34;;;;;;;;;;;19.90;50.20;;;;;;4976166;28;75869;-71
2021/06/04 04:46:00;;;;;;;;;;;19.90;50.70;;;;;;4974732;28;77395;-72
2021/06/04 04:48:25;;;;;;;;;;;19.90;51.00;;;;;;4975682;28;75146;-66
2021/06/04 04:50:51;;;;;;;;;;;19.80;51.50;;;;;;4974292;28;78020;-74
2021/06/04 04:53:17;;;;;;;;;;;19.80;51.30;;;;;;4974332;28;76976;-71
2021/06/04 04:55:43;;;;;;;;;;;19.80;51.10;;;;;;4976121;28;75150;-72
2021/06/04 04:58:09;;;;;;;;;;;19.70;50.80;;;;;;4975511;28;75282;-71
2021/06/04 05:00:36;;;;;;;;;;;19.70;50.90;;;;;;4975708;28;74913;-71
2021/06/04 05:03:02;;;;;;;;;;;19.70;51.40;;;;;;4975575;28;75226;-73
2021/06/04 05:05:29;;;;;;;;;;;19.70;51.60;;;;;;4974079;28;77981;-71
2021/06/04 05:07:55;;;;;;;;;;;19.70;51.30;;;;;;4974053;28;78467;-68
2021/06/04 05:10:21;;;;;;;;;;;19.60;51.60;;;;;;4974983;28;74691;-71
2021/06/04 05:12:46;;;;;;;;;;;19.60;51.40;;;;;;4975486;28;75280;-72
2021/06/04 05:15:14;;;;;;;;;;;19.50;51.60;;;;;;4975409;28;75364;-74
2021/06/04 05:17:41;;;;;;;;;;;19.60;51.70;;;;;;4975219;28;75120;-70
2021/06/04 05:20:08;;;;;;;;;;;19.60;51.90;;;;;;4975619;28;75627;-72
2021/06/04 05:22:34;;;;;;;;;;;19.70;51.10;;;;;;4975233;28;77535;-73
2021/06/04 05:24:59;;;;;;;;;;;19.70;50.30;;;;;;4975169;28;75094;-67
2021/06/04 05:27:25;;;;;;;;;;;19.80;49.80;;;;;;4974587;28;75680;-68
2021/06/04 05:29:51;;;;;;;;;;;19.70;50.90;;;;;;4973570;28;76779;-69
2021/06/04 05:32:17;;;;;;;;;;;19.80;51.00;;;;;;4972769;28;76414;-68
2021/06/04 05:34:44;;;;;;;;;;;19.90;50.70;;;;;;4972871;28;77874;-69
2021/06/04 05:37:10;;;;;;;;;;;19.80;50.50;;;;;;4982909;28;77156;-70
2021/06/04 05:39:35;;;;;;;;;;;19.90;51.20;;;;;;4974824;28;75623;-65
2021/06/04 05:42:04;;;;;;;;;;;19.90;50.80;;;;;;4991317;28;75190;-69
2021/06/04 05:44:31;;;;;;;;;;;19.90;50.60;;;;;;4992955;28;76572;-66
2021/06/04 05:46:59;;;;;;;;;;;19.90;51.10;;;;;;4994408;28;75068;-70
2021/06/04 05:49:25;;;;;;;;;;;19.90;50.30;;;;;;4992482;28;77493;-64
2021/06/04 05:51:52;;;;;;;;;;;19.90;49.60;;;;;;4993863;28;75301;-67
2021/06/04 05:54:19;;;;;;;;;;;19.90;49.30;;;;;;4993104;28;75034;-65
2021/06/04 05:56:45;;;;;;;;;;;19.90;49.10;;;;;;4993778;28;74647;-66
2021/06/04 05:59:13;;;;;;;;;;;19.90;49.80;;;;;;4992880;28;77336;-69
2021/06/04 06:01:39;;;;;;;;;;;19.90;49.60;;;;;;4984960;28;76847;-70
2021/06/04 06:04:05;;;;;;;;;;;19.90;49.70;;;;;;4993725;28;75620;-64
2021/06/04 06:06:30;;;;;;;;;;;20.00;49.60;;;;;;4994493;28;74990;-67
2021/06/04 06:08:56;;;;;;;;;;;20.00;49.90;;;;;;4990160;28;77206;-65
2021/06/04 06:11:25;;;;;;;;;;;20.10;49.40;;;;;;4992551;28;78066;-69
2021/06/04 06:13:51;;;;;;;;;;;20.10;49.40;;;;;;4983958;28;74682;-67
2021/06/04 06:16:17;;;;;;;;;;;20.20;49.60;;;;;;4972672;28;78029;-64
2021/06/04 06:18:43;;;;;;;;;;;20.20;49.60;;;;;;4973822;28;75614;-64
2021/06/04 06:21:08;;;;;;;;;;;20.20;48.70;;;;;;4974462;28;75226;-68
2021/06/04 06:23:35;;;;;;;;;;;20.30;48.80;;;;;;4974051;28;74701;-64
2021/06/04 06:26:03;;;;;;;;;;;20.40;49.20;;;;;;4973904;28;75546;-67
2021/06/04 06:28:33;;;;;;;;;;;20.40;49.30;;;;;;4980799;28;75669;-65
2021/06/04 06:30:59;;;;;;;;;;;20.40;48.90;;;;;;4991216;28;75122;-63
2021/06/04 06:33:25;;;;;;;;;;;20.40;48.60;;;;;;4972387;28;76567;-64
2021/06/04 06:35:52;;;;;;;;;;;20.40;48.20;;;;;;4971324;28;77393;-65
2021/06/04 06:38:19;;;;;;;;;;;20.50;48.60;;;;;;4973784;28;75441;-66
2021/06/04 06:40:45;;;;;;;;;;;20.50;48.60;;;;;;4973460;28;76257;-61
2021/06/04 06:43:11;;;;;;;;;;;20.60;48.20;;;;;;4973138;28;75316;-64
2021/06/04 06:45:38;;;;;;;;;;;20.60;48.40;;;;;;4973089;28;76493;-62
2021/06/04 06:48:04;;;;;;;;;;;20.60;48.40;;;;;;4971573;28;78178;-62
2021/06/04 06:50:30;;;;;;;;;;;20.70;48.50;;;;;;4973265;28;77754;-64
2021/06/04 06:53:02;;;;;;;;;;;20.70;47.80;;;;;;4972834;28;76187;-64
2021/06/04 06:55:29;;;;;;;;;;;20.70;47.50;;;;;;4971377;28;77995;-64
2021/06/04 06:57:55;;;;;;;;;;;20.70;47.30;;;;;;4973508;28;74509;-63
2021/06/04 07:00:26;;;;;;;;;;;20.80;47.60;;;;;;4973220;28;76629;-63
2021/06/04 07:02:51;;;;;;;;;;;20.90;47.20;;;;;;4991329;28;75691;-63
2021/06/04 07:05:18;;;;;;;;;;;20.90;47.00;;;;;;4992215;28;74523;-63
2021/06/04 07:07:43;;;;;;;;;;;20.90;47.40;;;;;;4992858;28;75921;-64
2021/06/04 07:10:11;;;;;;;;;;;21.00;47.00;;;;;;4991059;28;78210;-64
2021/06/04 07:12:37;;;;;;;;;;;21.00;46.80;;;;;;4991421;28;77342;-64
2021/06/04 07:15:04;;;;;;;;;;;21.00;46.90;;;;;;4990749;28;76181;-64
2021/06/04 07:17:30;;;;;;;;;;;21.10;46.80;;;;;;4990736;28;78794;-66
2021/06/04 07:19:56;;;;;;;;;;;21.20;46.60;;;;;;4989818;28;75562;-65
2021/06/04 07:22:22;;;;;;;;;;;21.30;46.30;;;;;;4977974;28;77465;-65
2021/06/04 07:24:47;;;;;;;;;;;21.40;46.10;;;;;;4991137;28;75131;-64
2021/06/04 07:27:14;;;;;;;;;;;21.40;45.90;;;;;;4992772;28;75108;-65
2021/06/04 07:29:41;;;;;;;;;;;21.40;46.00;;;;;;4992238;28;75773;-64
2021/06/04 07:32:07;;;;;;;;;;;21.50;45.40;;;;;;4992367;28;75339;-65
2021/06/04 07:34:33;;;;;;;;;;;21.50;45.70;;;;;;4991846;28;75141;-66
2021/06/04 07:37:00;;;;;;;;;;;21.60;45.80;;;;;;4992503;28;74884;-66
2021/06/04 07:39:28;;;;;;;;;;;21.60;45.40;;;;;;4992656;28;74626;-65
2021/06/04 07:41:54;;;;;;;;;;;21.70;45.10;;;;;;4990959;28;77577;-64
2021/06/04 07:44:20;;;;;;;;;;;21.70;44.70;;;;;;4990705;28;77752;-65
2021/06/04 07:46:46;;;;;;;;;;;21.70;45.00;;;;;;4991686;28;76593;-64
2021/06/04 07:49:12;;;;;;;;;;;21.70;44.70;;;;;;4992583;28;75131;-65
2021/06/04 07:51:40;;;;;;;;;;;21.80;44.60;;;;;;4992347;28;75091;-64
2021/06/04 07:54:06;;;;;;;;;;;21.80;44.70;;;;;;4990863;28;77983;-65
2021/06/04 07:56:32;;;;;;;;;;;21.90;44.80;;;;;;4992256;28;74688;-66
2021/06/04 07:58:57;;;;;;;;;;;21.90;44.40;;;;;;4990903;28;76046;-66
2021/06/04 08:01:23;;;;;;;;;;;22.00;44.00;;;;;;4992492;28;75780;-65
2021/06/04 08:03:49;;;;;;;;;;;22.00;44.20;;;;;;4991937;28;75134;-66
2021/06/04 08:06:16;;;;;;;;;;;22.00;44.70;;;;;;4990530;28;75788;-65
2021/06/04 08:08:42;;;;;;;;;;;22.10;44.00;;;;;;4990564;28;76462;-65
2021/06/04 08:11:09;;;;;;;;;;;22.20;44.20;;;;;;4989637;28;78061;-66
2021/06/04 08:13:35;;;;;;;;;;;22.20;44.10;;;;;;4971766;28;75877;-68
2021/06/04 08:16:02;;;;;;;;;;;22.30;43.90;;;;;;4991123;28;75600;-64
2021/06/04 08:18:32;;;;;;;;;;;22.30;43.90;;;;;;4992124;28;75523;-66
2021/06/04 08:20:58;;;;;;;;;;;22.40;43.60;;;;;;4990621;28;78103;-66
2021/06/04 08:23:35;;;;;;;;;;;22.50;43.60;;;;;;4992035;28;75248;-66
2021/06/04 08:26:02;;;;;;;;;;;22.60;43.30;;;;;;4992009;28;75215;-66
2021/06/04 08:28:29;;;;;;;;;;;22.70;43.50;;;;;;4991106;28;75500;-65
2021/06/04 08:30:55;;;;;;;;;;;22.80;43.40;;;;;;4989946;28;76537;-66
2021/06/04 08:33:25;;;;;;;;;;;22.90;43.00;;;;;;4992019;28;76282;-65
2021/06/04 08:35:51;;;;;;;;;;;22.90;42.90;;;;;;4991387;28;76708;-65
2021/06/04 08:38:17;;;;;;;;;;;23.00;43.60;;;;;;4989666;28;78022;-65
2021/06/04 08:40:43;;;;;;;;;;;23.10;43.40;;;;;;4990600;28;77022;-65
2021/06/04 08:43:21;;;;;;;;;;;23.20;43.20;;;;;;4990222;28;75792;-64
2021/06/04 08:45:52;;;;;;;;;;;23.40;43.10;;;;;;4990513;28;75309;-65
2021/06/04 08:48:30;;;;;;;;;;;23.40;42.60;;;;;;4989539;28;78200;-65
2021/06/04 08:51:06;;;;;;;;;;;23.50;41.90;;;;;;4991820;28;74594;-66
2021/06/04 08:53:36;;;;;;;;;;;23.50;42.00;;;;;;4992121;28;74760;-65
2021/06/04 08:56:05;;;;;;;;;;;23.60;42.00;;;;;;4989942;28;77179;-64
2021/06/04 08:58:50;;;;;;;;;;;23.70;41.60;;;;;;4990341;28;76484;-64
2021/06/04 09:01:34;;;;;;;;;;;23.90;41.80;;;;;;4994821;28;74539;-64
2021/06/04 09:04:00;;;;;;;;;;;23.90;41.60;;;;;;4992407;28;98206;-65
2021/06/04 09:06:26;;;;;;;;;;;24.10;41.60;;;;;;4993359;28;77168;-67
2021/06/04 09:08:52;;;;;;;;;;;24.20;41.00;;;;;;4994971;28;75007;-64
2021/06/04 09:11:31;;;;;;;;;;;24.30;41.00;;;;;;4993604;28;75727;-65
2021/06/04 09:13:58;;;;;;;;;;;24.50;41.20;;;;;;4995235;28;75293;-65
2021/06/04 09:16:23;;;;;;;;;;;24.60;40.60;;;;;;4980313;28;77322;-64
2021/06/04 09:18:56;;;;;;;;;;;24.60;40.60;;;;;;4991312;28;74994;-65
2021/06/04 09:21:24;;;;;;;;;;;24.70;40.70;;;;;;4995238;28;74572;-65
2021/06/04 09:23:50;;;;;;;;;;;24.80;40.50;;;;;;4994691;28;75453;-65
2021/06/04 09:26:17;;;;;;;;;;;24.80;40.20;;;;;;4993136;28;76660;-64
2021/06/04 09:28:47;;;;;;;;;;;24.80;39.10;;;;;;4992650;28;76696;-64
2021/06/04 09:31:12;;;;;;;;;;;24.80;37.40;;;;;;4994601;28;75155;-64
2021/06/04 09:33:49;;;;;;;;;;;24.90;38.00;;;;;;4993020;28;78292;-66
2021/06/04 09:36:16;;;;;;;;;;;24.90;38.30;;;;;;4994143;28;74755;-66
2021/06/04 09:38:42;;;;;;;;;;;25.00;37.50;;;;;;4992812;28;77394;-65
2021/06/04 09:41:26;;;;;;;;;;;25.00;36.20;;;;;;4994074;28;75099;-64
2021/06/04 09:44:03;;;;;;;;;;;24.90;35.60;;;;;;4994170;28;75549;-65
2021/06/04 09:46:31;;;;;;;;;;;24.90;36.50;;;;;;4994132;28;75164;-64
2021/06/04 09:48:58;;;;;;;;;;;25.00;36.60;;;;;;4994024;28;75247;-65
2021/06/04 09:51:23;;;;;;;;;;;25.00;36.00;;;;;;4992875;28;75991;-64
2021/06/04 09:53:49;;;;;;;;;;;25.20;36.80;;;;;;4978159;28;77270;-65
2021/06/04 09:56:23;;;;;;;;;;;25.30;35.10;;;;;;4991756;28;74739;-64
2021/06/04 09:58:49;;;;;;;;;;;25.20;36.00;;;;;;4992553;28;77720;-65
2021/06/04 10:01:16;;;;;;;;;;;25.20;36.00;;;;;;4993155;28;77942;-64
2021/06/04 10:03:42;;;;;;;;;;;25.10;36.50;;;;;;4992356;28;78131;-65
2021/06/04 10:06:07;;;;;;;;;;;25.20;35.80;;;;;;4994089;28;75345;-70
2021/06/04 10:08:43;;;;;;;;;;;25.30;35.40;;;;;;4993798;28;74708;-66
2021/06/04 10:11:13;;;;;;;;;;;25.40;34.50;;;;;;4993129;28;75174;-64
2021/06/04 10:13:42;;;;;;;;;;;25.50;34.80;;;;;;4992745;28;78432;-65
2021/06/04 10:19:16;;;;;;;;;;;25.60;34.70;;;;;;4991675;28;74780;-64
2021/06/04 10:21:41;;;;;;;;;;;25.70;34.60;;;;;;4992253;28;77938;-63
2021/06/04 10:24:20;;;;;;;;;;;25.80;34.30;;;;;;4993839;28;75048;-63
2021/06/04 10:26:52;;;;;;;;;;;25.90;34.40;;;;;;4993312;28;75489;-65
2021/06/04 10:29:17;;;;;;;;;;;26.10;34.10;;;;;;4993433;28;74724;-61
2021/06/04 10:32:17;;;;;;;;;;;26.30;34.40;;;;;;4991936;28;76534;-63
2021/06/04 10:34:43;;;;;;;;;;;26.50;33.40;;;;;;5001425;28;77750;-63
2021/06/04 10:37:11;;;;;;;;;;;26.50;33.00;;;;;;4991331;28;75040;-64
2021/06/04 10:39:48;;;;;;;;;;;26.70;32.90;;;;;;4991857;28;78268;-65
2021/06/04 10:42:33;;;;;;;;;;;26.90;32.60;;;;;;4993543;28;75663;-65
2021/06/04 10:45:01;;;;;;;;;;;26.90;32.90;;;;;;4993487;28;75548;-68
2021/06/04 10:47:36;;;;;;;;;;;27.10;31.00;;;;;;4991201;28;76403;-66
2021/06/04 10:50:09;;;;;;;;;;;27.10;31.00;;;;;;4992993;28;74901;-66
2021/06/04 10:52:54;;;;;;;;;;;27.30;31.40;;;;;;4993383;28;74882;-66
2021/06/04 10:55:26;;;;;;;;;;;27.50;31.40;;;;;;4991690;28;76504;-65
2021/06/04 10:57:55;;;;;;;;;;;27.70;29.30;;;;;;4990148;28;75700;-66
2021/06/04 11:00:24;;;;;;;;;;;27.90;30.00;;;;;;4987502;28;78055;-65
2021/06/04 11:03:04;;;;;;;;;;;28.10;30.00;;;;;;4980485;28;75661;-64
2021/06/04 11:05:30;;;;;;;;;;;28.40;28.60;;;;;;4971993;28;75445;-66
2021/06/04 11:08:08;;;;;;;;;;;28.40;29.80;;;;;;4973200;28;75109;-65
2021/06/04 11:10:44;;;;;;;;;;;28.80;28.40;;;;;;4973391;28;74991;-63
2021/06/04 11:13:30;;;;;;;;;;;29.10;28.00;;;;;;4973899;28;74639;-62
2021/06/04 11:16:19;;;;;;;;;;;29.40;27.10;;;;;;4970936;28;74834;-67
2021/06/04 11:18:56;;;;;;;;;;;29.70;27.10;;;;;;4970587;28;76319;-66
2021/06/04 11:21:35;;;;;;;;;;;30.30;27.70;;;;;;4973426;28;75225;-66
2021/06/04 11:24:07;;;;;;;;;;;30.90;26.00;;;;;;4973187;28;74533;-66
2021/06/04 11:26:41;;;;;;;;;;;31.20;25.60;;;;;;4971582;28;76121;-66
2021/06/04 11:29:15;;;;;;;;;;;31.50;25.00;;;;;;4973206;28;74715;-66
2021/06/04 11:31:53;;;;;;;;;;;32.10;24.80;;;;;;4971719;28;77559;-66
2021/06/04 11:34:26;;;;;;;;;;;32.80;23.80;;;;;;4973196;28;75235;-66
2021/06/04 11:36:51;;;;;;;;;;;33.60;22.30;;;;;;4971000;28;77203;-64
2021/06/04 11:39:30;;;;;;;;;;;34.30;23.20;;;;;;4973287;28;75210;-63
2021/06/04 11:41:58;;;;;;;;;;;35.40;21.50;;;;;;4971398;28;78075;-64
2021/06/04 11:44:27;;;;;;;;;;;35.90;21.20;;;;;;4971270;28;77098;-62
2021/06/04 11:47:11;;;;;;;;;;;36.50;19.80;;;;;;4972145;28;75238;-64
2021/06/04 11:49:55;;;;;;;;;;;37.50;20.20;;;;;;4972768;28;75031;-65
2021/06/04 11:52:32;;;;;;;;;;;39.00;19.30;;;;;;4973184;28;74516;-65
2021/06/04 11:55:08;;;;;;;;;;;39.60;18.50;;;;;;4972932;28;75593;-66
2021/06/04 11:57:43;;;;;;;;;;;40.50;17.80;;;;;;4972137;28;74699;-65
2021/06/04 12:00:24;;;;;;;;;;;41.80;17.00;;;;;;4971373;28;75481;-66
2021/06/04 12:02:51;;;;;;;;;;;42.50;16.50;;;;;;4972750;28;75550;-64
2021/06/04 12:05:16;;;;;;;;;;;42.60;15.90;;;;;;4971854;28;77143;-63
2021/06/04 12:08:05;;;;;;;;;;;42.60;15.80;;;;;;4989169;28;77714;-66
2021/06/04 12:10:46;;;;;;;;;;;43.40;16.20;;;;;;4991386;28;75234;-64
2021/06/04 12:13:40;;;;;;;;;;;43.70;15.40;;;;;;4992958;28;75051;-68
2021/06/04 12:16:30;;;;;;;;;;;43.90;15.80;;;;;;4990818;28;75800;-66
2021/06/04 12:19:02;;;;;;;;;;;44.90;14.10;;;;;;4991683;28;74492;-67
2021/06/04 12:21:44;;;;;;;;;;;45.30;15.30;;;;;;4992014;28;75104;-66
2021/06/04 12:24:21;;;;;;;;;;;46.40;14.00;;;;;;4990552;28;76119;-67
2021/06/04 12:26:52;;;;;;;;;;;46.10;14.00;;;;;;4982179;28;75082;-66
2021/06/04 12:29:20;;;;;;;;;;;45.10;14.10;;;;;;4988790;28;77164;-66
2021/06/04 12:32:06;;;;;;;;;;;45.50;14.20;;;;;;4991743;28;75793;-66
2021/06/04 12:34:32;;;;;;;;;;;45.60;14.30;;;;;;4992630;28;74653;-66
2021/06/04 12:37:03;;;;;;;;;;;46.30;14.30;;;;;;4995545;28;75303;-67
2021/06/04 12:39:32;;;;;;;;;;;47.40;14.20;;;;;;4995033;28;75278;-66
2021/06/04 12:42:21;;;;;;;;;;;48.60;14.20;;;;;;4994087;28;77145;-66
2021/06/04 12:45:06;;;;;;;;;;;49.50;13.60;;;;;;4990178;28;77986;-66
2021/06/04 12:47:51;;;;;;;;;;;51.00;13.40;;;;;;4994637;28;75113;-67
2021/06/04 12:50:19;;;;;;;;;;;51.60;12.70;;;;;;4995483;28;74478;-67
2021/06/04 12:52:45;;;;;;;;;;;51.60;12.60;;;;;;4995189;28;75243;-64
2021/06/04 12:55:15;;;;;;;;;;;51.70;11.30;;;;;;4992567;28;75067;-65
2021/06/04 12:57:41;;;;;;;;;;;50.90;12.80;;;;;;4993328;28;77087;-64
2021/06/04 13:00:17;;;;;;;;;;;51.30;11.70;;;;;;4993834;28;78003;-65
2021/06/04 13:02:43;;;;;;;;;;;51.00;11.80;;;;;;4993519;28;75252;-66
2021/06/04 13:05:09;;;;;;;;;;;50.10;12.50;;;;;;4995956;28;74911;-66
2021/06/04 13:07:37;;;;;;;;;;;49.40;12.50;;;;;;4993517;28;75890;-66
2021/06/04 13:10:12;;;;;;;;;;;49.40;12.00;;;;;;4993707;28;76519;-65
2021/06/04 13:12:39;;;;;;;;;;;49.90;12.00;;;;;;4981665;28;76278;-65
2021/06/04 13:15:14;;;;;;;;;;;50.30;12.40;;;;;;4975711;28;74549;-65
2021/06/04 13:17:40;;;;;;;;;;;51.00;11.20;;;;;;4984293;28;75241;-66
2021/06/04 13:20:08;;;;;;;;;;;50.50;11.80;;;;;;4985801;28;75053;-65
2021/06/04 13:22:35;;;;;;;;;;;50.90;12.00;;;;;;4981600;28;76500;-66
2021/06/04 13:25:19;;;;;;;;;;;51.60;12.20;;;;;;4974044;28;77332;-63
2021/06/04 13:27:45;;;;;;;;;;;52.70;12.00;;;;;;4976005;28;74454;-65
2021/06/04 13:30:13;;;;;;;;;;;52.60;11.70;;;;;;4973541;28;78139;-64
2021/06/04 13:32:48;;;;;;;;;;;53.10;10.80;;;;;;4975424;28;75186;-65
2021/06/04 13:35:18;;;;;;;;;;;53.00;10.60;;;;;;4975048;28;75295;-65
2021/06/04 13:37:47;;;;;;;;;;;52.80;11.00;;;;;;4973904;28;76319;-67
2021/06/04 13:40:14;;;;;;;;;;;53.40;11.20;;;;;;4975416;28;74713;-65
2021/06/04 13:42:44;;;;;;;;;;;54.40;11.00;;;;;;4974969;28;75140;-63
2021/06/04 13:45:14;;;;;;;;;;;55.10;11.30;;;;;;4974063;28;77057;-62
2021/06/04 13:47:45;;;;;;;;;;;55.50;11.00;;;;;;4974860;28;75203;-65
2021/06/04 13:50:20;;;;;;;;;;;55.70;11.00;;;;;;4973713;28;75287;-65
2021/06/04 13:52:56;;;;;;;;;;;55.30;9.90;;;;;;4975278;28;74561;-66
2021/06/04 13:55:21;;;;;;;;;;;54.30;10.70;;;;;;4973704;28;75571;-66
2021/06/04 13:57:47;;;;;;;;;;;54.30;11.40;;;;;;4974203;28;74598;-67
2021/06/04 14:00:22;;;;;;;;;;;55.30;11.20;;;;;;4974887;28;75778;-66
2021/06/04 14:02:49;;;;;;;;;;;56.50;11.00;;;;;;4973537;28;76078;-65
2021/06/04 14:05:27;;;;;;;;;;;57.00;10.10;;;;;;4974744;28;75559;-64
2021/06/04 14:08:01;;;;;;;;;;;56.60;10.70;;;;;;4974807;28;75178;-63
2021/06/04 14:10:31;;;;;;;;;;;56.80;10.70;;;;;;4974803;28;75080;-64
2021/06/04 14:13:00;;;;;;;;;;;57.40;10.40;;;;;;4974676;28;75220;-65
2021/06/04 14:16:04;;;;;;;;;;;56.90;10.50;;;;;;4974611;28;76824;-65
2021/06/04 14:18:30;;;;;;;;;;;56.70;10.80;;;;;;5011550;28;75153;-65
2021/06/04 14:20:56;;;;;;;;;;;57.30;10.80;;;;;;5011875;28;76079;-66
2021/06/04 14:23:29;;;;;;;;;;;57.40;11.00;;;;;;5003604;28;75601;-67
2021/06/04 14:26:14;;;;;;;;;;;57.30;10.80;;;;;;4992480;28;78238;-66
2021/06/04 14:28:39;;;;;;;;;;;56.80;11.10;;;;;;4993826;28;75377;-66
2021/06/04 14:31:05;;;;;;;;;;;55.80;10.40;;;;;;4994180;28;75716;-66
2021/06/04 14:33:39;;;;;;;;;;;55.00;10.70;;;;;;4993952;28;75233;-66